Time;durP1;ratioP1;P1;durP2;ratioP2;P2;SDS_P1;SDS_P2;PMS_P1;PMS_P2;Temp;Humidity;BMP_temperature;BMP_pressure;BME280_temperature;BME280_humidity;BME280_pressure;Samples;Min_cycle;Max_cycle;Signal;HPM_P1;HPM_P2
2022/08/31 00:04:32;;;;;;;9.30;5.97;;;13.90;99.90;;;;;;9542486;31;20135;-86
2022/08/31 00:09:33;;;;;;;10.55;6.55;;;13.90;99.90;;;;;;9527151;31;20051;-86
2022/08/31 00:14:34;;;;;;;10.75;6.30;;;13.80;99.90;;;;;;9549209;31;20081;-86
2022/08/31 00:19:35;;;;;;;16.05;7.35;;;13.70;99.90;;;;;;9545951;31;20051;-86
2022/08/31 00:24:35;;;;;;;12.05;6.25;;;13.50;99.90;;;;;;9529735;31;20059;-86
2022/08/31 00:29:36;;;;;;;8.40;6.07;;;13.50;99.90;;;;;;9543401;31;20040;-86
2022/08/31 00:34:36;;;;;;;10.15;5.60;;;13.50;99.90;;;;;;9553374;31;20046;-86
2022/08/31 00:39:37;;;;;;;9.02;5.57;;;13.50;99.90;;;;;;9542968;31;20811;-86
2022/08/31 00:44:39;;;;;;;11.07;5.80;;;13.50;99.90;;;;;;9555747;31;20073;-86
2022/08/31 00:49:41;;;;;;;10.13;6.43;;;13.50;99.90;;;;;;9548927;31;20074;-86
2022/08/31 00:54:46;;;;;;;10.52;6.15;;;13.60;99.90;;;;;;9541307;31;20051;-86
2022/08/31 00:59:48;;;;;;;6.78;4.32;;;13.80;99.90;;;;;;9544567;31;20059;-85
2022/08/31 01:04:48;;;;;;;9.50;5.30;;;13.90;99.90;;;;;;9549653;30;20126;-87
2022/08/31 01:09:49;;;;;;;8.48;5.50;;;13.90;99.90;;;;;;9537444;31;20090;-85
2022/08/31 01:14:50;;;;;;;9.82;5.82;;;13.90;99.90;;;;;;9551425;31;20498;-86
2022/08/31 01:20:19;;;;;;;8.25;5.18;;;13.90;99.90;;;;;;9540852;31;20050;-85
2022/08/31 01:25:19;;;;;;;9.35;5.40;;;13.80;99.90;;;;;;9544996;31;20063;-86
2022/08/31 01:30:23;;;;;;;10.52;5.40;;;13.80;99.90;;;;;;9541840;31;20076;-85
2022/08/31 01:35:24;;;;;;;7.97;5.10;;;13.80;99.90;;;;;;9556457;30;20056;-88
2022/08/31 01:40:31;;;;;;;9.98;5.18;;;13.80;99.90;;;;;;9530676;31;20047;-86
2022/08/31 01:45:32;;;;;;;9.73;5.35;;;13.70;99.90;;;;;;9534637;31;20044;-86
2022/08/31 01:50:33;;;;;;;8.45;5.15;;;13.90;99.90;;;;;;9539787;31;20043;-86
2022/08/31 01:55:33;;;;;;;11.35;5.57;;;13.90;99.90;;;;;;9547917;31;20130;-85
2022/08/31 02:00:34;;;;;;;7.22;4.75;;;14.00;99.90;;;;;;9553148;31;20155;-86
2022/08/31 02:05:36;;;;;;;7.22;5.15;;;14.00;99.90;;;;;;9552429;31;20123;-86
2022/08/31 02:10:37;;;;;;;7.60;4.75;;;14.00;99.90;;;;;;9557094;31;20470;-86
2022/08/31 02:15:38;;;;;;;8.38;4.72;;;14.00;99.90;;;;;;9555815;31;20052;-86
2022/08/31 02:20:38;;;;;;;5.45;4.45;;;14.10;99.90;;;;;;9552846;30;20043;-87
2022/08/31 02:25:39;;;;;;;9.55;5.85;;;14.10;99.90;;;;;;9535496;31;20171;-86
2022/08/31 02:30:41;;;;;;;8.20;4.80;;;14.10;99.90;;;;;;9554241;31;20048;-86
2022/08/31 02:35:42;;;;;;;7.13;5.15;;;14.10;99.90;;;;;;9557847;30;20142;-87
2022/08/31 02:40:42;;;;;;;7.00;5.32;;;14.10;99.90;;;;;;9539913;31;20878;-86
2022/08/31 02:45:43;;;;;;;6.43;5.07;;;14.20;99.90;;;;;;9563095;31;20066;-88
2022/08/31 02:50:47;;;;;;;7.10;4.80;;;14.20;99.90;;;;;;9533823;31;20042;-87
2022/08/31 02:55:48;;;;;;;7.57;5.15;;;14.30;99.90;;;;;;9550264;31;20066;-85
2022/08/31 03:00:50;;;;;;;9.00;5.15;;;14.30;99.90;;;;;;9531398;31;20123;-85
2022/08/31 03:05:50;;;;;;;9.23;5.15;;;14.30;99.90;;;;;;9540000;31;20105;-85
2022/08/31 03:10:51;;;;;;;7.22;5.18;;;14.30;99.90;;;;;;9553688;31;20554;-85
2022/08/31 03:15:52;;;;;;;6.88;5.35;;;14.30;99.90;;;;;;9549187;31;20142;-87
2022/08/31 03:20:52;;;;;;;9.13;5.85;;;14.30;99.90;;;;;;9527771;31;20040;-85
2022/08/31 03:25:53;;;;;;;9.10;5.85;;;14.30;99.90;;;;;;9546124;31;20063;-85
2022/08/31 03:30:54;;;;;;;9.38;5.40;;;14.30;99.90;;;;;;9555197;31;20036;-87
2022/08/31 03:35:54;;;;;;;8.95;5.45;;;14.20;99.90;;;;;;9530094;31;20044;-86
2022/08/31 03:40:55;;;;;;;7.20;5.68;;;14.20;99.90;;;;;;9534658;31;20055;-86
2022/08/31 03:45:56;;;;;;;8.25;5.10;;;14.30;99.90;;;;;;9549692;31;20694;-85
2022/08/31 03:50:56;;;;;;;8.13;5.18;;;14.30;99.90;;;;;;9562072;31;20118;-84
2022/08/31 03:56:01;;;;;;;7.57;5.35;;;14.30;99.90;;;;;;9522409;31;20462;-87
2022/08/31 04:01:01;;;;;;;10.00;6.20;;;14.40;99.90;;;;;;9541266;31;20480;-87
2022/08/31 04:06:07;;;;;;;8.05;5.65;;;14.30;99.90;;;;;;9540429;31;20055;-87
2022/08/31 04:11:13;;;;;;;8.32;5.60;;;14.30;99.90;;;;;;9531845;31;20075;-86
2022/08/31 04:16:17;;;;;;;9.32;6.13;;;14.30;99.90;;;;;;9543796;31;20111;-85
2022/08/31 04:21:24;;;;;;;6.55;4.85;;;14.30;99.90;;;;;;9542996;31;20154;-85
2022/08/31 04:26:28;;;;;;;6.35;5.00;;;14.40;99.90;;;;;;9533138;31;20102;-86
2022/08/31 04:31:30;;;;;;;10.40;5.95;;;14.50;99.90;;;;;;9545990;31;20044;-87
2022/08/31 04:36:31;;;;;;;7.72;5.55;;;14.60;99.90;;;;;;9534311;31;20052;-86
2022/08/31 04:41:34;;;;;;;6.93;5.18;;;14.60;99.90;;;;;;9537917;31;20050;-85
2022/08/31 04:46:37;;;;;;;8.48;5.70;;;14.60;99.90;;;;;;9542035;31;20548;-85
2022/08/31 04:51:38;;;;;;;6.72;4.95;;;14.70;99.90;;;;;;9517917;31;20624;-86
2022/08/31 04:56:42;;;;;;;7.47;5.72;;;14.70;99.90;;;;;;9533868;31;20052;-86
2022/08/31 05:01:44;;;;;;;7.70;5.50;;;14.70;99.90;;;;;;9530523;31;20135;-85
2022/08/31 05:06:45;;;;;;;7.68;5.32;;;14.70;99.90;;;;;;9533563;31;20032;-86
2022/08/31 05:11:46;;;;;;;9.40;5.70;;;14.70;99.90;;;;;;9529872;31;20044;-85
2022/08/31 05:16:47;;;;;;;6.25;4.75;;;14.80;99.90;;;;;;9532271;31;20442;-86
2022/08/31 05:21:48;;;;;;;6.75;5.00;;;14.90;99.90;;;;;;9536006;31;20056;-85
2022/08/31 05:26:51;;;;;;;7.25;4.65;;;15.00;99.90;;;;;;9534691;31;20394;-85
2022/08/31 05:31:52;;;;;;;7.15;4.82;;;15.20;99.90;;;;;;9532897;31;20127;-85
2022/08/31 05:36:55;;;;;;;7.45;4.35;;;15.30;99.90;;;;;;9534588;31;20048;-85
2022/08/31 05:41:55;;;;;;;5.65;4.10;;;15.50;99.90;;;;;;9530281;31;20494;-84
2022/08/31 05:46:56;;;;;;;4.35;3.88;;;15.70;99.90;;;;;;9531027;31;20040;-86
2022/08/31 05:51:57;;;;;;;6.22;4.60;;;15.90;99.90;;;;;;9534280;31;20427;-85
2022/08/31 05:56:58;;;;;;;4.25;3.58;;;16.00;99.90;;;;;;9524386;31;20048;-84
2022/08/31 06:02:00;;;;;;;6.78;4.15;;;16.00;99.90;;;;;;9531213;31;20063;-87
2022/08/31 06:07:00;;;;;;;4.13;3.22;;;16.00;99.90;;;;;;9530666;31;20462;-85
2022/08/31 06:12:02;;;;;;;6.15;3.70;;;16.00;99.90;;;;;;9538946;31;20039;-84
2022/08/31 06:17:03;;;;;;;4.72;3.63;;;16.10;99.90;;;;;;9535368;31;20040;-85
2022/08/31 06:22:04;;;;;;;6.40;3.20;;;16.30;99.90;;;;;;9535925;31;20421;-85
2022/08/31 06:27:06;;;;;;;4.55;3.28;;;16.30;99.90;;;;;;9537231;31;20099;-85
2022/08/31 06:32:08;;;;;;;8.30;3.53;;;16.40;99.90;;;;;;9534983;31;20044;-84
2022/08/31 06:37:10;;;;;;;4.60;3.50;;;16.50;99.90;;;;;;9535330;31;20040;-85
2022/08/31 06:42:11;;;;;;;7.20;3.70;;;16.60;99.90;;;;;;9545498;31;20533;-85
2022/08/31 06:47:12;;;;;;;6.30;3.90;;;16.70;99.90;;;;;;9569329;31;20122;-84
2022/08/31 06:52:13;;;;;;;4.57;3.22;;;16.80;99.90;;;;;;9572753;31;20126;-85
2022/08/31 06:57:14;;;;;;;3.45;2.58;;;17.00;99.90;;;;;;9555538;31;20047;-84
2022/08/31 07:02:14;;;;;;;6.30;3.03;;;17.20;99.90;;;;;;9548179;31;20032;-85
2022/08/31 07:07:15;;;;;;;3.78;2.50;;;17.20;99.90;;;;;;9554044;31;20040;-84
2022/08/31 07:12:15;;;;;;;5.78;2.65;;;17.30;99.90;;;;;;9571032;31;20402;-85
2022/08/31 07:17:16;;;;;;;3.08;2.35;;;17.20;99.90;;;;;;9573562;30;20402;-84
2022/08/31 07:22:17;;;;;;;8.20;3.00;;;17.40;99.90;;;;;;9573571;30;20060;-85
2022/08/31 07:27:17;;;;;;;4.85;2.50;;;17.40;99.90;;;;;;9563723;31;20778;-85
2022/08/31 07:32:18;;;;;;;5.90;2.28;;;17.40;99.90;;;;;;9554422;31;20040;-84
2022/08/31 07:42:43;;;;;;;5.72;2.45;;;18.00;99.90;;;;;;9575205;31;20078;-84
2022/08/31 07:47:45;;;;;;;6.20;2.05;;;18.30;99.90;;;;;;9561549;31;20138;-85
2022/08/31 07:52:50;;;;;;;5.63;2.95;;;18.30;99.90;;;;;;9529280;31;20708;-84
2022/08/31 07:57:53;;;;;;;7.07;3.20;;;18.30;99.90;;;;;;9553300;31;20043;-85
2022/08/31 08:03:00;;;;;;;5.78;2.92;;;18.40;99.90;;;;;;9550279;31;20694;-84
2022/08/31 08:08:03;;;;;;;5.70;2.47;;;18.40;99.90;;;;;;9549750;31;20091;-84
2022/08/31 08:13:04;;;;;;;4.50;2.40;;;18.30;99.90;;;;;;9565107;31;20039;-84
2022/08/31 08:18:05;;;;;;;5.68;2.35;;;18.40;99.90;;;;;;9554080;30;20051;-84
2022/08/31 08:23:11;;;;;;;3.22;2.33;;;18.50;99.90;;;;;;9550374;31;20071;-84
2022/08/31 08:28:20;;;;;;;6.55;2.53;;;18.70;99.90;;;;;;9546974;31;20114;-86
2022/08/31 08:33:20;;;;;;;3.28;1.60;;;19.00;99.90;;;;;;9570951;31;20039;-86
2022/08/31 08:38:29;;;;;;;1.50;1.20;;;19.00;99.90;;;;;;9569705;30;20043;-84
2022/08/31 08:43:39;;;;;;;4.65;1.92;;;19.40;99.90;;;;;;9561838;31;20059;-86
2022/08/31 08:48:42;;;;;;;1.98;1.60;;;19.50;99.90;;;;;;9564304;31;20050;-85
2022/08/31 08:53:47;;;;;;;4.68;1.50;;;19.70;99.90;;;;;;9550550;31;20047;-85
2022/08/31 08:58:48;;;;;;;2.20;1.80;;;19.60;97.00;;;;;;9546625;31;20211;-84
2022/08/31 09:04:15;;;;;;;3.08;1.40;;;19.30;96.60;;;;;;9562161;30;20093;-84
2022/08/31 09:09:31;;;;;;;2.50;1.30;;;19.40;96.20;;;;;;9559378;31;20035;-86
2022/08/31 09:14:52;;;;;;;2.90;1.33;;;19.40;94.90;;;;;;9542622;31;20051;-87
2022/08/31 09:20:04;;;;;;;1.67;1.10;;;19.60;96.40;;;;;;9542714;31;20040;-85
2022/08/31 09:25:05;;;;;;;3.08;1.67;;;19.90;95.60;;;;;;9567545;30;20058;-83
2022/08/31 09:30:07;;;;;;;6.55;1.80;;;20.40;94.30;;;;;;9537969;31;20067;-84
2022/08/31 09:35:23;;;;;;;2.28;1.15;;;20.20;92.30;;;;;;9549182;31;20036;-85
2022/08/31 09:40:47;;;;;;;4.18;1.52;;;20.10;93.40;;;;;;9545277;31;20454;-85
2022/08/31 09:45:59;;;;;;;2.55;1.65;;;20.60;93.60;;;;;;9558967;31;20039;-85
2022/08/31 09:51:01;;;;;;;2.63;1.42;;;20.80;92.00;;;;;;9565000;31;20035;-86
2022/08/31 09:56:13;;;;;;;3.47;1.50;;;21.10;92.00;;;;;;9567402;30;20574;-86
2022/08/31 10:01:43;;;;;;;3.58;1.38;;;21.00;91.40;;;;;;9578370;31;20043;-84
2022/08/31 10:06:54;;;;;;;3.97;1.48;;;21.20;89.20;;;;;;9559009;31;20110;-85
2022/08/31 10:11:58;;;;;;;3.22;1.40;;;21.30;91.20;;;;;;9541286;31;20036;-85
2022/08/31 10:17:24;;;;;;;4.20;1.50;;;21.30;90.00;;;;;;9545968;31;20051;-85
2022/08/31 10:22:31;;;;;;;2.35;1.27;;;21.40;86.90;;;;;;9562927;31;20526;-85
2022/08/31 10:27:42;;;;;;;3.88;1.20;;;21.20;83.20;;;;;;9558336;31;20509;-85
2022/08/31 10:33:00;;;;;;;2.17;1.10;;;21.10;82.00;;;;;;9564248;31;20506;-85
2022/08/31 10:38:25;;;;;;;4.43;1.40;;;21.20;86.20;;;;;;9564348;31;20061;-86
2022/08/31 10:43:54;;;;;;;2.35;1.27;;;21.30;85.10;;;;;;9544989;31;20066;-87
2022/08/31 10:48:56;;;;;;;2.90;1.30;;;21.40;86.40;;;;;;9544352;31;20074;-85
2022/08/31 10:54:40;;;;;;;4.30;1.65;;;21.30;85.40;;;;;;9539732;31;20039;-85
2022/08/31 10:59:55;;;;;;;1.10;0.90;;;21.50;85.20;;;;;;9554448;31;20489;-86
2022/08/31 11:05:25;;;;;;;3.38;1.38;;;21.60;83.20;;;;;;9542246;31;20055;-85
2022/08/31 11:10:45;;;;;;;2.90;1.13;;;21.30;82.20;;;;;;9541951;31;20517;-86
2022/08/31 11:15:57;;;;;;;2.47;1.40;;;21.20;83.70;;;;;;9569215;31;20099;-86
2022/08/31 11:21:13;;;;;;;3.38;1.38;;;21.30;83.30;;;;;;9547408;30;20486;-86
2022/08/31 11:26:32;;;;;;;1.77;1.00;;;21.40;83.70;;;;;;9545814;31;20055;-85
2022/08/31 11:31:33;;;;;;;3.92;1.20;;;21.30;82.20;;;;;;9537306;31;20079;-86
2022/08/31 11:36:50;;;;;;;3.20;1.25;;;21.40;80.40;;;;;;9531231;30;20134;-87
2022/08/31 11:41:53;;;;;;;2.33;1.05;;;21.50;84.60;;;;;;9534076;31;20068;-86
2022/08/31 11:47:14;;;;;;;1.60;1.00;;;21.90;79.30;;;;;;9540072;31;20035;-87
2022/08/31 11:52:23;;;;;;;4.72;1.20;;;21.90;77.90;;;;;;9539737;31;20058;-86
2022/08/31 11:57:27;;;;;;;1.08;0.90;;;22.10;76.30;;;;;;9547102;31;20086;-86
2022/08/31 12:02:29;;;;;;;1.17;0.80;;;22.00;77.50;;;;;;9557227;31;20043;-85
2022/08/31 12:07:34;;;;;;;3.72;1.02;;;22.30;76.40;;;;;;9546619;31;20042;-86
2022/08/31 12:12:54;;;;;;;1.00;0.90;;;22.10;74.10;;;;;;9536412;31;20042;-87
2022/08/31 12:18:28;;;;;;;1.98;0.93;;;22.00;77.00;;;;;;9533044;30;20490;-87
2022/08/31 12:23:57;;;;;;;1.83;1.07;;;22.50;77.20;;;;;;9513545;31;20067;-88
2022/08/31 12:29:13;;;;;;;1.55;0.68;;;21.70;75.10;;;;;;9552001;31;20382;-86
2022/08/31 12:34:18;;;;;;;;;;;21.00;76.30;;;;;;9516217;31;20046;-84
2022/08/31 12:39:22;;;;;;;2.87;0.80;;;20.50;78.50;;;;;;9515456;31;19925;-85
2022/08/31 12:44:33;;;;;;;1.58;0.85;;;20.20;78.30;;;;;;9531563;31;20028;-87
2022/08/31 12:50:01;;;;;;;1.42;1.00;;;20.30;79.30;;;;;;9544696;31;20044;-85
2022/08/31 12:55:24;;;;;;;1.20;0.80;;;20.30;80.50;;;;;;9550251;31;20047;-86
2022/08/31 13:00:42;;;;;;;2.03;1.15;;;20.30;80.10;;;;;;9536729;31;20040;-86
2022/08/31 13:06:04;;;;;;;1.52;0.95;;;20.50;80.90;;;;;;9537894;31;20413;-86
2022/08/31 13:11:37;;;;;;;3.72;0.88;;;20.70;79.70;;;;;;9533332;31;20042;-87
2022/08/31 13:17:08;;;;;;;2.95;1.20;;;20.70;79.90;;;;;;9542908;31;20061;-87
2022/08/31 13:22:15;;;;;;;2.15;0.73;;;20.80;80.80;;;;;;9531727;31;20056;-87
2022/08/31 13:27:19;;;;;;;2.60;1.60;;;20.80;78.70;;;;;;9525885;31;20036;-87
2022/08/31 13:32:20;;;;;;;4.55;1.67;;;20.80;80.70;;;;;;9534869;31;20131;-87
2022/08/31 13:38:03;;;;;;;2.38;1.70;;;21.00;81.90;;;;;;9540236;31;20395;-88
2022/08/31 13:43:06;;;;;;;3.42;1.83;;;20.90;82.20;;;;;;9506401;31;20058;-85
2022/08/31 13:48:19;;;;;;;3.00;1.50;;;21.10;81.80;;;;;;9542290;30;20387;-85
2022/08/31 13:53:56;;;;;;;7.88;1.50;;;21.20;80.90;;;;;;9536312;31;20394;-83
2022/08/31 13:59:23;;;;;;;4.20;1.50;;;21.10;77.60;;;;;;9533131;31;20061;-86
2022/08/31 14:04:59;;;;;;;1.60;1.35;;;21.00;76.70;;;;;;9537163;31;20067;-86
2022/08/31 14:10:18;;;;;;;1.63;1.40;;;21.00;80.40;;;;;;9536354;31;20043;-86
2022/08/31 14:15:34;;;;;;;5.53;2.22;;;21.00;78.10;;;;;;9543315;31;20055;-86
2022/08/31 14:21:33;;;;;;;5.10;2.78;;;21.10;79.60;;;;;;9531348;31;20062;-85
2022/08/31 14:26:40;;;;;;;2.42;1.77;;;21.30;78.40;;;;;;9525573;31;20056;-85
2022/08/31 14:31:52;;;;;;;1.80;1.40;;;21.30;79.50;;;;;;9531655;31;20047;-85
2022/08/31 14:36:56;;;;;;;2.17;1.08;;;21.20;78.50;;;;;;9542308;31;20040;-87
2022/08/31 14:42:31;;;;;;;2.53;1.20;;;21.20;77.40;;;;;;9560078;31;20043;-85
2022/08/31 14:47:38;;;;;;;1.38;0.80;;;21.20;75.90;;;;;;9553693;31;20024;-85
2022/08/31 14:52:41;;;;;;;2.55;1.00;;;21.10;77.20;;;;;;9544270;31;20040;-85
2022/08/31 14:57:44;;;;;;;2.70;1.10;;;20.90;78.20;;;;;;9553118;31;20044;-86
2022/08/31 15:02:46;;;;;;;2.65;1.27;;;20.70;77.80;;;;;;9557751;31;20430;-87
2022/08/31 15:07:49;;;;;;;1.85;0.90;;;20.50;79.40;;;;;;9544540;31;20070;-86
2022/08/31 15:12:52;;;;;;;3.45;0.88;;;20.50;79.00;;;;;;9529422;31;20036;-87
2022/08/31 15:17:52;;;;;;;1.98;0.90;;;20.40;79.20;;;;;;9535307;31;20048;-86
2022/08/31 15:23:08;;;;;;;0.95;0.80;;;20.50;77.50;;;;;;9535637;31;20056;-88
2022/08/31 15:28:41;;;;;;;2.15;0.90;;;20.30;74.30;;;;;;9529227;31;20203;-87
2022/08/31 15:33:43;;;;;;;1.42;0.95;;;20.10;76.50;;;;;;9512232;31;20437;-85
2022/08/31 15:38:44;;;;;;;1.33;0.70;;;19.90;77.10;;;;;;9545175;31;20047;-87
2022/08/31 15:43:45;;;;;;;1.58;0.98;;;19.70;76.40;;;;;;9536129;31;20043;-86
2022/08/31 15:48:58;;;;;;;2.67;1.08;;;19.50;78.40;;;;;;9546900;31;20099;-84
2022/08/31 15:54:06;;;;;;;2.15;0.90;;;19.40;79.60;;;;;;9539268;31;20059;-83
2022/08/31 15:59:11;;;;;;;3.22;1.05;;;19.20;79.90;;;;;;9542277;31;20143;-84
2022/08/31 16:04:22;;;;;;;3.05;0.98;;;19.10;80.80;;;;;;9545293;31;20039;-85
2022/08/31 16:09:23;;;;;;;6.43;1.55;;;19.10;82.00;;;;;;9550205;31;20114;-82
2022/08/31 16:14:23;;;;;;;3.95;0.70;;;19.00;81.40;;;;;;9564670;30;20115;-83
2022/08/31 16:19:25;;;;;;;3.85;0.98;;;19.00;82.50;;;;;;9545194;31;20039;-82
2022/08/31 16:24:25;;;;;;;3.63;1.20;;;19.00;81.80;;;;;;9550886;31;20059;-83
2022/08/31 16:29:29;;;;;;;2.42;1.70;;;18.90;82.60;;;;;;9531350;31;20036;-83
2022/08/31 16:34:31;;;;;;;3.00;1.90;;;18.80;82.40;;;;;;9534261;31;20078;-82
2022/08/31 16:39:38;;;;;;;5.00;2.20;;;18.70;83.40;;;;;;9551772;31;20156;-84
2022/08/31 16:44:40;;;;;;;4.20;2.03;;;18.70;83.40;;;;;;9525630;31;20055;-83
2022/08/31 16:49:42;;;;;;;5.40;1.95;;;18.50;84.20;;;;;;9540943;31;20048;-84
2022/08/31 16:54:46;;;;;;;3.00;1.60;;;18.40;85.00;;;;;;9542849;31;20047;-83
2022/08/31 16:59:48;;;;;;;3.17;2.03;;;18.20;88.50;;;;;;9548315;31;20183;-84
2022/08/31 17:04:49;;;;;;;3.95;1.88;;;17.90;91.10;;;;;;9540181;31;20127;-83
2022/08/31 17:09:54;;;;;;;3.38;2.20;;;17.60;92.60;;;;;;9553503;31;20556;-82
2022/08/31 17:14:56;;;;;;;3.08;2.60;;;17.40;93.30;;;;;;9546502;31;20888;-84
2022/08/31 17:19:57;;;;;;;5.55;2.30;;;17.10;94.00;;;;;;9552516;30;20549;-81
2022/08/31 17:25:01;;;;;;;2.45;2.08;;;16.90;96.00;;;;;;9544633;31;20059;-81
2022/08/31 17:30:04;;;;;;;4.35;2.40;;;16.50;98.10;;;;;;9525521;31;20494;-82
2022/08/31 17:35:06;;;;;;;4.57;2.75;;;16.30;99.90;;;;;;9532424;31;20052;-82
2022/08/31 17:40:31;;;;;;;7.35;2.60;;;16.00;99.90;;;;;;9536908;31;20379;-83
2022/08/31 17:45:34;;;;;;;7.60;3.45;;;15.70;99.90;;;;;;9527407;31;20044;-82
2022/08/31 17:50:41;;;;;;;7.60;3.10;;;15.40;99.90;;;;;;9537325;31;20115;-85
2022/08/31 17:55:41;;;;;;;5.43;2.92;;;15.30;99.90;;;;;;9553119;31;20050;-83
2022/08/31 18:00:42;;;;;;;5.72;3.38;;;15.10;99.90;;;;;;9538297;31;20055;-82
2022/08/31 18:05:46;;;;;;;9.90;3.38;;;15.00;99.90;;;;;;9541527;31;20039;-82
2022/08/31 18:10:51;;;;;;;5.85;2.70;;;14.80;99.90;;;;;;9541834;31;20032;-83
2022/08/31 18:15:52;;;;;;;5.57;3.13;;;14.60;99.90;;;;;;9546061;31;20455;-82
2022/08/31 18:20:52;;;;;;;5.47;2.90;;;14.40;99.90;;;;;;9556579;30;20355;-84
2022/08/31 18:25:53;;;;;;;7.88;2.60;;;14.30;99.90;;;;;;9538772;31;20489;-86
2022/08/31 18:30:54;;;;;;;4.15;2.53;;;14.10;99.90;;;;;;9542212;30;20100;-83
2022/08/31 18:35:55;;;;;;;5.70;2.67;;;14.00;99.90;;;;;;9550675;31;20051;-85
2022/08/31 18:46:15;;;;;;;4.78;2.58;;;13.80;99.90;;;;;;9535100;31;20499;-88
2022/08/31 18:51:23;;;;;;;5.95;2.80;;;13.60;99.90;;;;;;9539705;31;20060;-85
2022/08/31 18:56:24;;;;;;;5.10;2.67;;;13.50;99.90;;;;;;9525744;31;20058;-86
2022/08/31 19:01:27;;;;;;;4.90;2.90;;;13.40;99.90;;;;;;9530721;31;20038;-87
2022/08/31 19:06:29;;;;;;;6.43;2.92;;;13.40;99.90;;;;;;9532787;31;20486;-84
2022/08/31 19:11:30;;;;;;;3.53;2.60;;;13.20;99.90;;;;;;9528770;30;20046;-87
2022/08/31 19:16:31;;;;;;;6.85;3.00;;;13.10;99.90;;;;;;9527860;31;20477;-85
2022/08/31 19:21:34;;;;;;;6.93;2.80;;;13.00;99.90;;;;;;9523332;30;20138;-83
2022/08/31 19:26:38;;;;;;;5.55;2.72;;;13.00;99.90;;;;;;9532435;31;20527;-83
2022/08/31 19:31:43;;;;;;;7.40;3.30;;;12.90;99.90;;;;;;9530756;31;20166;-85
2022/08/31 19:36:45;;;;;;;4.93;2.72;;;12.80;99.90;;;;;;9536624;31;20054;-85
2022/08/31 19:41:54;;;;;;;8.07;3.67;;;12.70;99.90;;;;;;9539284;31;20096;-86
2022/08/31 19:46:56;;;;;;;6.90;3.58;;;12.70;99.90;;;;;;9541039;31;20525;-86
2022/08/31 19:52:00;;;;;;;4.88;2.90;;;12.70;99.90;;;;;;9537922;31;20047;-87
2022/08/31 19:57:02;;;;;;;6.13;3.70;;;12.50;99.90;;;;;;9544240;31;20054;-85
2022/08/31 20:02:05;;;;;;;7.97;3.42;;;12.50;99.90;;;;;;9546099;31;20552;-86
2022/08/31 20:07:06;;;;;;;6.50;3.28;;;12.50;99.90;;;;;;9549688;31;20048;-86
2022/08/31 20:12:07;;;;;;;8.02;3.75;;;12.40;99.90;;;;;;9547370;31;20052;-86
2022/08/31 20:17:08;;;;;;;6.90;3.47;;;12.40;99.90;;;;;;9543442;31;20076;-87
2022/08/31 20:22:09;;;;;;;4.50;2.70;;;12.40;99.90;;;;;;9551077;31;20069;-85
2022/08/31 20:27:11;;;;;;;6.68;3.40;;;12.30;99.90;;;;;;9549990;31;20043;-85
2022/08/31 20:32:11;;;;;;;5.70;3.10;;;12.30;99.90;;;;;;9544829;31;20043;-86
2022/08/31 20:37:12;;;;;;;9.30;3.83;;;12.20;99.90;;;;;;9563436;31;20065;-85
2022/08/31 20:42:12;;;;;;;9.73;3.95;;;12.20;99.90;;;;;;9555174;31;20040;-85
2022/08/31 20:52:33;;;;;;;5.80;3.70;;;12.10;99.90;;;;;;9554900;31;20494;-85
2022/08/31 20:57:39;;;;;;;6.45;4.13;;;12.20;99.90;;;;;;9540171;31;20062;-86
2022/08/31 21:02:40;;;;;;;;;;;12.20;99.90;;;;;;9544776;31;20074;-85
2022/08/31 21:07:40;;;;;;;7.75;4.28;;;12.30;99.90;;;;;;9537259;31;20011;-86
2022/08/31 21:12:41;;;;;;;5.90;4.07;;;12.30;99.90;;;;;;9555133;31;20040;-85
2022/08/31 21:17:41;;;;;;;5.88;3.47;;;12.50;99.90;;;;;;9544976;30;20130;-86
2022/08/31 21:22:42;;;;;;;4.72;3.22;;;12.50;99.90;;;;;;9546451;31;20071;-86
2022/08/31 21:27:43;;;;;;;6.32;3.92;;;12.60;99.90;;;;;;9542385;31;20051;-86
2022/08/31 21:32:45;;;;;;;5.50;3.08;;;12.60;99.90;;;;;;9534684;31;20413;-87
2022/08/31 21:37:46;;;;;;;7.65;4.07;;;12.60;99.90;;;;;;9557201;31;20150;-86
2022/08/31 21:42:48;;;;;;;7.93;3.60;;;12.60;99.90;;;;;;9540042;31;20521;-85
2022/08/31 21:47:48;;;;;;;4.05;3.13;;;12.70;99.90;;;;;;9540247;31;20513;-86
2022/08/31 21:52:51;;;;;;;6.53;3.20;;;12.70;99.90;;;;;;9550540;31;20051;-86
2022/08/31 21:57:51;;;;;;;6.28;3.38;;;12.70;99.90;;;;;;9540001;31;20047;-87
2022/08/31 22:02:53;;;;;;;6.82;3.38;;;12.80;99.90;;;;;;9526263;31;20402;-86
2022/08/31 22:07:54;;;;;;;6.25;3.28;;;12.80;99.90;;;;;;9551976;31;20044;-86
2022/08/31 22:12:54;;;;;;;10.95;3.33;;;12.80;99.90;;;;;;9546219;31;20059;-87
2022/08/31 22:17:56;;;;;;;6.47;3.00;;;12.70;99.90;;;;;;9563859;30;20047;-87
2022/08/31 22:22:57;;;;;;;5.43;2.95;;;12.80;99.90;;;;;;9546160;31;20063;-87
2022/08/31 22:27:59;;;;;;;4.00;3.05;;;12.80;99.90;;;;;;9526635;31;20040;-86
2022/08/31 22:32:59;;;;;;;6.20;3.25;;;12.80;99.90;;;;;;9541286;31;20071;-86
2022/08/31 22:38:00;;;;;;;6.65;2.70;;;12.80;99.90;;;;;;9547114;31;20150;-86
2022/08/31 22:43:01;;;;;;;7.80;3.78;;;12.80;99.90;;;;;;9544423;31;20049;-85
2022/08/31 22:48:02;;;;;;;5.60;2.80;;;12.90;99.90;;;;;;9550841;30;20039;-86
2022/08/31 22:53:04;;;;;;;4.78;2.80;;;13.00;99.90;;;;;;9548626;31;20043;-87
2022/08/31 22:58:04;;;;;;;5.65;3.67;;;13.00;99.90;;;;;;9560102;30;20047;-86
2022/08/31 23:03:05;;;;;;;6.30;3.67;;;12.90;99.90;;;;;;9555649;31;20043;-86
2022/08/31 23:08:07;;;;;;;4.72;3.50;;;13.00;99.90;;;;;;9553234;31;20593;-86
2022/08/31 23:13:07;;;;;;;5.97;3.55;;;12.90;99.90;;;;;;9542799;31;20087;-85
2022/08/31 23:18:09;;;;;;;10.65;4.22;;;13.00;99.90;;;;;;9548911;31;20075;-86
2022/08/31 23:23:09;;;;;;;6.80;3.90;;;12.90;99.90;;;;;;9553766;31;20230;-85
2022/08/31 23:28:11;;;;;;;6.00;4.05;;;12.80;99.90;;;;;;9548910;31;20138;-86
2022/08/31 23:33:11;;;;;;;5.40;3.65;;;12.90;99.90;;;;;;9559541;31;20537;-86
2022/08/31 23:38:12;;;;;;;4.82;3.40;;;12.80;99.90;;;;;;9559388;31;20047;-86
2022/08/31 23:43:13;;;;;;;7.22;3.50;;;12.70;99.90;;;;;;9544202;31;20039;-86
2022/08/31 23:48:13;;;;;;;5.57;3.67;;;12.70;99.90;;;;;;9546245;30;20504;-86
2022/08/31 23:53:16;;;;;;;8.48;3.58;;;12.70;99.90;;;;;;9543189;31;20044;-86
2022/08/31 23:58:16;;;;;;;6.28;3.55;;;12.80;99.90;;;;;;9553609;31;20521;-86
